Flight Information

DEPARTURE
MOJAVE, CA
Elevation:
2801
Runways:
4/22 - 4747x60 - ASPH-E
8/26 - 7049x100 - ASPH-G
12/30 - 12503x200 - ASPH-E
Ground:
123.9
Tower:
127.6
DESTINATION
,
Elevation:
TPA:
1000 (est.)


6762.8 NM73° True-14° Var58° HDG

Flight Plan:
(click to file on line)

1. Type
2. Aircraft Identification
3. Aircraft Type / Special Equipment
4. True Airspeed
kts
5. Departure Airport
(ICAO code)
6. Arriving Airport
(ICAO code)
7. Cruising Altitude
ft
8. Alternate Airport
(ICAO code)
9. Route of Flight
10. Remarks


00:00:00 Departure ATIS: Destination ATIS:

Clearance Limit:
Route:
Altitude: Expect in minutes
Frequency:
Transponder: (7500 Hijack / 7600 Lost Comms / 7700 Emergency)


KMHV 282140Z AUTO 07013G20KT 10SM CLR 13/M16 A3036 RMK A01
Time: 2022-01-28T21:40:00Z
1643407428
Winds: 70 @ 13 kts
Gusting:20 kts
Visibility: 10.0 sm
Clouds (AGL): CLR
Temperature: 13.0 C
Dew Point: -16.0 C
Pressure: 30.360237 in Hgbr


Notes:

Data extracted from FAA Digital Chart Supplement. Effective: 0901Z Thursday, DEC 2, 2021 to 0901Z Thursday, JAN 27, 2022
Current ATIS data is provided courtisy of PilotEdge.